createdAt,value
2023-03-22T00:01:23.024Z,1.00
2023-03-22T00:03:51.661Z,1.00
2023-03-22T00:06:18.536Z,1.00
2023-03-22T00:08:45.516Z,1.00
2023-03-22T00:11:12.958Z,1.00
2023-03-22T00:13:39.970Z,1.00
2023-03-22T00:16:07.398Z,78.00
2023-03-22T00:18:34.207Z,44.00
2023-03-22T00:21:02.032Z,99.90
2023-03-22T00:23:29.579Z,99.90
2023-03-22T00:25:56.618Z,99.90
2023-03-22T00:28:24.222Z,99.90
2023-03-22T00:30:53.532Z,99.90
2023-03-22T00:33:20.436Z,99.90
2023-03-22T00:35:55.240Z,1.00
2023-03-22T00:38:29.970Z,1.00
2023-03-22T00:41:08.509Z,1.00
2023-03-22T00:43:35.496Z,1.00
2023-03-22T00:46:02.416Z,1.00
2023-03-22T00:48:32.047Z,1.00
2023-03-22T00:50:58.877Z,1.00
2023-03-22T00:53:26.229Z,8.50
2023-03-22T00:55:53.019Z,99.90
2023-03-22T00:58:19.831Z,31.60
2023-03-22T01:00:46.683Z,31.60
2023-03-22T01:03:14.312Z,99.90
2023-03-22T01:05:41.193Z,99.90
2023-03-22T01:08:10.869Z,99.90
2023-03-22T01:10:38.994Z,1.00
2023-03-22T01:13:06.530Z,1.00
2023-03-22T01:15:33.780Z,99.90
2023-03-22T01:18:01.707Z,1.00
2023-03-22T01:20:28.981Z,1.00
2023-03-22T01:22:55.862Z,99.90
2023-03-22T01:25:22.660Z,1.00
2023-03-22T01:27:49.473Z,1.00
2023-03-22T01:30:16.548Z,1.00
2023-03-22T01:32:43.410Z,1.00
2023-03-22T01:35:10.451Z,1.00
2023-03-22T01:37:37.344Z,1.00
2023-03-22T01:40:05.131Z,99.90
2023-03-22T01:42:33.524Z,1.00
2023-03-22T01:45:14.491Z,1.00
2023-03-22T01:48:06.288Z,1.00
2023-03-22T01:50:33.291Z,1.00
2023-03-22T01:53:01.000Z,1.00
2023-03-22T01:55:28.143Z,99.90
2023-03-22T01:57:55.449Z,1.00
2023-03-22T02:00:22.487Z,1.00
2023-03-22T02:02:51.058Z,1.00
2023-03-22T02:05:19.047Z,99.90
2023-03-22T02:07:46.073Z,99.90
2023-03-22T02:10:19.092Z,99.90
2023-03-22T02:13:03.402Z,99.90
2023-03-22T02:15:38.806Z,99.90
2023-03-22T02:18:33.752Z,99.90
2023-03-22T02:21:13.408Z,99.90
2023-03-22T02:24:07.768Z,99.90
2023-03-22T02:27:06.454Z,99.90
2023-03-22T02:29:46.052Z,99.90
2023-03-22T02:32:31.007Z,99.90
2023-03-22T02:35:16.633Z,99.90
2023-03-22T02:38:02.519Z,99.90
2023-03-22T02:40:29.526Z,99.90
2023-03-22T02:43:05.660Z,99.90
2023-03-22T02:45:40.742Z,99.90
2023-03-22T02:48:18.918Z,99.90
2023-03-22T02:51:10.275Z,96.30
2023-03-22T02:53:53.222Z,99.90
2023-03-22T02:56:28.453Z,32.30
2023-03-22T02:58:57.888Z,1.00
2023-03-22T03:01:30.010Z,31.70
2023-03-22T03:04:00.122Z,1.00
2023-03-22T03:06:31.146Z,1.00
2023-03-22T03:08:58.478Z,2.20
2023-03-22T03:11:25.282Z,1.00
2023-03-22T03:13:52.226Z,1.00
2023-03-22T03:16:21.882Z,1.00
2023-03-22T03:19:08.081Z,31.60
2023-03-22T03:22:01.108Z,25.50
2023-03-22T03:24:31.706Z,1.00
2023-03-22T03:27:07.514Z,1.00
2023-03-22T03:29:45.827Z,1.00
2023-03-22T03:32:25.693Z,1.00
2023-03-22T03:35:07.413Z,1.00
2023-03-22T03:37:37.567Z,1.00
2023-03-22T03:40:11.664Z,1.00
2023-03-22T03:42:41.529Z,1.00
2023-03-22T03:45:09.098Z,1.00
2023-03-22T03:47:36.382Z,1.00
2023-03-22T03:50:04.593Z,1.00
2023-03-22T03:52:31.590Z,1.00
2023-03-22T03:54:58.521Z,1.00
2023-03-22T03:57:25.381Z,1.00
2023-03-22T03:59:52.379Z,99.90
2023-03-22T04:02:19.203Z,99.90
2023-03-22T04:04:46.566Z,99.90
2023-03-22T04:07:13.524Z,99.90
2023-03-22T04:09:40.589Z,99.90
2023-03-22T04:12:09.715Z,82.60
2023-03-22T04:14:36.835Z,33.70
2023-03-22T04:17:03.740Z,39.90
2023-03-22T04:19:31.216Z,5.50
2023-03-22T04:21:58.202Z,16.90
2023-03-22T04:24:24.975Z,1.00
2023-03-22T04:26:52.736Z,1.00
2023-03-22T04:29:19.821Z,1.00
2023-03-22T04:31:46.667Z,1.00
2023-03-22T04:34:14.131Z,1.00
2023-03-22T04:36:41.195Z,1.00
2023-03-22T04:39:10.545Z,1.00
2023-03-22T04:41:37.651Z,1.00
2023-03-22T04:44:06.100Z,1.00
2023-03-22T04:46:35.680Z,1.00
2023-03-22T04:49:03.503Z,1.00
2023-03-22T04:51:32.021Z,1.00
2023-03-22T04:53:59.119Z,1.00
2023-03-22T04:56:26.538Z,1.00
2023-03-22T04:58:53.437Z,1.00
2023-03-22T05:01:20.463Z,1.00
2023-03-22T05:03:47.521Z,1.00
2023-03-22T05:06:15.241Z,1.00
2023-03-22T05:08:42.571Z,1.00
2023-03-22T05:11:14.934Z,1.00
2023-03-22T05:13:42.163Z,1.00
2023-03-22T05:16:09.910Z,1.00
2023-03-22T05:18:42.369Z,1.00
2023-03-22T05:21:17.913Z,1.00
2023-03-22T05:23:45.783Z,1.00
2023-03-22T05:26:15.690Z,1.00
2023-03-22T05:28:43.708Z,1.00
2023-03-22T05:31:11.904Z,1.00
2023-03-22T05:33:39.287Z,1.00
2023-03-22T05:36:06.421Z,1.00
2023-03-22T05:38:33.568Z,1.00
2023-03-22T05:41:00.418Z,1.00
2023-03-22T05:43:27.243Z,1.00
2023-03-22T05:45:54.010Z,1.00
2023-03-22T05:48:20.877Z,1.00
2023-03-22T05:50:47.760Z,1.00
2023-03-22T05:53:14.557Z,1.00
2023-03-22T05:55:41.353Z,1.00
2023-03-22T05:58:08.497Z,1.00
2023-03-22T06:00:35.806Z,1.00
2023-03-22T06:03:03.872Z,1.00
2023-03-22T06:05:32.148Z,1.00
2023-03-22T06:07:59.389Z,1.00
2023-03-22T06:10:26.967Z,1.00
2023-03-22T06:12:54.136Z,1.00
2023-03-22T06:15:21.004Z,1.00
2023-03-22T06:17:48.073Z,1.00
2023-03-22T06:20:15.959Z,1.00
2023-03-22T06:22:42.913Z,1.00
2023-03-22T06:25:11.001Z,1.00
2023-03-22T06:27:38.364Z,1.00
2023-03-22T06:30:06.023Z,1.00
2023-03-22T06:32:32.839Z,1.00
2023-03-22T06:34:59.596Z,1.00
2023-03-22T06:37:26.494Z,1.00
2023-03-22T06:39:53.421Z,1.00
2023-03-22T06:42:20.317Z,1.00
2023-03-22T06:44:47.443Z,1.00
2023-03-22T06:47:14.270Z,1.00
2023-03-22T06:49:41.091Z,1.00
2023-03-22T06:52:07.942Z,1.00
2023-03-22T06:54:34.827Z,1.00
2023-03-22T06:57:01.667Z,1.00
2023-03-22T06:59:28.506Z,1.00
2023-03-22T07:01:55.441Z,1.00
2023-03-22T07:04:22.491Z,1.00
2023-03-22T07:06:49.448Z,1.00
2023-03-22T07:09:16.647Z,1.00
2023-03-22T07:11:43.616Z,1.00
2023-03-22T07:14:10.459Z,1.00
2023-03-22T07:16:37.235Z,1.00
2023-03-22T07:19:04.125Z,1.00
2023-03-22T07:21:31.238Z,1.00
2023-03-22T07:23:58.290Z,1.00
2023-03-22T07:26:26.383Z,1.00
2023-03-22T07:28:53.380Z,1.00
2023-03-22T07:31:20.351Z,1.00
2023-03-22T07:33:48.282Z,1.00
2023-03-22T07:36:15.572Z,1.00
2023-03-22T07:38:42.436Z,1.00
2023-03-22T07:41:09.304Z,1.00
2023-03-22T07:43:50.884Z,1.00
2023-03-22T07:46:20.236Z,1.00
2023-03-22T07:48:47.098Z,1.00
2023-03-22T07:51:13.945Z,1.00
2023-03-22T07:53:40.916Z,1.00
2023-03-22T07:56:08.253Z,1.00
2023-03-22T07:58:35.151Z,1.00
2023-03-22T08:01:09.009Z,99.90
2023-03-22T08:03:36.697Z,99.90
2023-03-22T08:06:07.631Z,1.00
2023-03-22T08:08:36.966Z,99.90
2023-03-22T08:11:07.298Z,99.90
2023-03-22T08:13:34.211Z,99.90
2023-03-22T08:16:01.773Z,1.00
2023-03-22T08:18:28.758Z,1.00
2023-03-22T08:20:58.098Z,1.00
2023-03-22T08:23:38.391Z,1.00
2023-03-22T08:26:08.560Z,99.90
2023-03-22T08:28:35.546Z,1.00
2023-03-22T08:31:02.479Z,1.00
2023-03-22T08:33:29.525Z,1.00
2023-03-22T08:36:08.347Z,1.00
2023-03-22T08:38:35.488Z,99.90
2023-03-22T08:41:03.344Z,99.90
2023-03-22T08:43:31.586Z,99.90
2023-03-22T08:45:58.563Z,99.90
2023-03-22T08:48:28.059Z,99.90
2023-03-22T08:50:55.018Z,99.90
2023-03-22T08:53:21.815Z,1.00
2023-03-22T08:55:48.735Z,1.00
2023-03-22T08:58:16.653Z,1.00
2023-03-22T09:00:48.983Z,1.00
2023-03-22T09:03:17.332Z,1.00
2023-03-22T09:05:44.254Z,1.00
2023-03-22T09:08:18.443Z,1.00
2023-03-22T09:10:51.319Z,1.00
2023-03-22T09:13:18.700Z,1.00
2023-03-22T09:15:45.859Z,1.00
2023-03-22T09:18:12.990Z,1.00
2023-03-22T09:20:40.670Z,1.00
2023-03-22T09:23:07.768Z,1.00
2023-03-22T09:25:34.619Z,1.00
2023-03-22T09:28:02.271Z,1.00
2023-03-22T09:30:29.148Z,1.00
2023-03-22T09:32:56.592Z,1.00
2023-03-22T09:35:23.467Z,1.00
2023-03-22T09:37:53.399Z,1.00
2023-03-22T09:40:21.596Z,1.00
2023-03-22T09:42:50.776Z,1.00
2023-03-22T09:45:21.412Z,1.00
2023-03-22T09:47:51.736Z,1.00
2023-03-22T09:50:28.379Z,1.00
2023-03-22T09:52:55.480Z,1.00
2023-03-22T09:55:43.818Z,1.00
2023-03-22T09:58:39.889Z,1.00
2023-03-22T10:01:12.028Z,48.70
2023-03-22T10:04:08.358Z,99.90
2023-03-22T10:06:35.216Z,99.90
2023-03-22T10:09:09.982Z,99.90
2023-03-22T10:11:57.393Z,99.90
2023-03-22T10:14:30.369Z,99.90
2023-03-22T10:16:59.307Z,99.90
2023-03-22T10:19:27.518Z,99.90
2023-03-22T10:21:55.714Z,1.00
2023-03-22T10:24:32.180Z,1.00
2023-03-22T10:26:59.077Z,1.00
2023-03-22T10:29:35.030Z,1.00
2023-03-22T10:32:10.773Z,1.00
2023-03-22T10:34:37.581Z,1.00
2023-03-22T10:37:06.473Z,1.00
2023-03-22T10:39:39.781Z,1.00
2023-03-22T10:42:16.061Z,1.00
2023-03-22T10:44:52.422Z,1.00
2023-03-22T10:47:26.743Z,1.00
2023-03-22T10:49:56.133Z,1.00
2023-03-22T10:52:50.334Z,1.00
2023-03-22T10:55:17.306Z,1.00
2023-03-22T10:58:10.752Z,1.00
2023-03-22T11:00:41.190Z,1.00
2023-03-22T11:03:09.153Z,1.00
2023-03-22T11:05:36.131Z,1.00
2023-03-22T11:08:03.890Z,1.00
2023-03-22T11:10:34.558Z,1.00
2023-03-22T11:13:07.699Z,1.00
2023-03-22T11:15:55.953Z,1.00
2023-03-22T11:18:22.941Z,99.90
2023-03-22T11:20:57.010Z,1.00
2023-03-22T11:23:24.457Z,99.90
2023-03-22T11:25:52.925Z,1.00
2023-03-22T11:28:21.214Z,99.90
2023-03-22T11:31:01.920Z,1.00
2023-03-22T11:33:29.182Z,99.90
2023-03-22T11:35:58.480Z,99.90
2023-03-22T11:38:26.641Z,99.90
2023-03-22T11:41:08.482Z,99.90
2023-03-22T11:43:42.325Z,99.90
2023-03-22T11:46:09.395Z,99.90
2023-03-22T11:48:36.948Z,99.90
2023-03-22T11:51:09.837Z,99.90
2023-03-22T11:53:38.855Z,99.90
2023-03-22T11:56:07.694Z,99.90
2023-03-22T11:58:37.473Z,99.90
2023-03-22T12:01:06.020Z,99.90
2023-03-22T12:03:39.563Z,99.90
2023-03-22T12:06:21.530Z,99.90
2023-03-22T12:08:53.198Z,99.90
2023-03-22T12:11:27.768Z,99.90
2023-03-22T12:14:21.161Z,99.90
2023-03-22T12:16:56.435Z,99.90
2023-03-22T12:19:42.295Z,99.90
2023-03-22T12:22:18.566Z,99.90
2023-03-22T12:24:46.118Z,99.90
2023-03-22T12:27:23.334Z,99.90
2023-03-22T12:30:26.143Z,99.90
2023-03-22T12:32:56.520Z,99.90
2023-03-22T12:35:27.267Z,99.90
2023-03-22T12:38:01.718Z,85.80
2023-03-22T12:40:32.848Z,67.50
2023-03-22T12:43:06.212Z,15.60
2023-03-22T12:45:39.877Z,8.90
2023-03-22T12:48:16.137Z,21.90
2023-03-22T12:50:44.025Z,50.10
2023-03-22T12:53:17.204Z,30.40
2023-03-22T12:55:46.043Z,1.00
2023-03-22T12:58:22.454Z,18.80
2023-03-22T13:01:24.965Z,57.00
2023-03-22T13:03:54.810Z,3.80
2023-03-22T13:06:37.245Z,38.90
2023-03-22T13:09:21.240Z,9.00
2023-03-22T13:12:16.762Z,27.10
2023-03-22T13:14:52.357Z,1.00
2023-03-22T13:17:22.304Z,10.70
2023-03-22T13:20:07.991Z,69.70
2023-03-22T13:22:37.941Z,99.90
2023-03-22T13:25:12.977Z,99.90
2023-03-22T13:27:46.193Z,99.90
2023-03-22T13:30:16.069Z,99.90
2023-03-22T13:33:10.552Z,99.90
2023-03-22T13:35:37.934Z,99.90
2023-03-22T13:38:31.191Z,99.90
2023-03-22T13:41:08.011Z,99.90
2023-03-22T13:43:50.353Z,99.90
2023-03-22T13:46:20.799Z,99.90
2023-03-22T13:48:48.404Z,99.90
2023-03-22T13:51:22.040Z,99.90
2023-03-22T13:54:07.660Z,99.90
2023-03-22T13:56:41.153Z,99.90
2023-03-22T13:59:11.643Z,99.90
2023-03-22T14:01:51.745Z,99.90
2023-03-22T14:04:26.486Z,99.90
2023-03-22T14:06:57.432Z,99.90
2023-03-22T14:09:48.789Z,1.00
2023-03-22T14:12:36.195Z,1.00
2023-03-22T14:15:05.252Z,1.00
2023-03-22T14:17:36.273Z,1.00
2023-03-22T14:20:06.644Z,1.00
